sensor_id;sensor_type;location;lat;lon;timestamp;pressure;altitude;pressure_sealevel;temperature;humidity
47985;BME280;33753;52.912;-7.342;2022-12-18T00:00:03;100072.19;;;1.42;100.00
47985;BME280;33753;52.912;-7.342;2022-12-18T00:02:39;100075.56;;;1.44;100.00
47985;BME280;33753;52.912;-7.342;2022-12-18T00:05:08;100067.13;;;1.50;100.00
47985;BME280;33753;52.912;-7.342;2022-12-18T00:07:36;100054.75;;;1.49;100.00
47985;BME280;33753;52.912;-7.342;2022-12-18T00:10:05;100059.81;;;1.52;100.00
47985;BME280;33753;52.912;-7.342;2022-12-18T00:12:35;100058.03;;;1.53;100.00
47985;BME280;33753;52.912;-7.342;2022-12-18T00:15:03;100054.84;;;1.59;100.00
47985;BME280;33753;52.912;-7.342;2022-12-18T00:17:32;100046.75;;;1.61;100.00
47985;BME280;33753;52.912;-7.342;2022-12-18T00:20:00;100047.22;;;1.66;100.00
47985;BME280;33753;52.912;-7.342;2022-12-18T00:22:28;100061.38;;;1.66;100.00
47985;BME280;33753;52.912;-7.342;2022-12-18T00:24:56;100060.44;;;1.67;100.00
47985;BME280;33753;52.912;-7.342;2022-12-18T00:27:24;100056.66;;;1.70;100.00
47985;BME280;33753;52.912;-7.342;2022-12-18T00:29:54;100061.63;;;1.75;100.00
47985;BME280;33753;52.912;-7.342;2022-12-18T00:32:22;100063.06;;;1.79;100.00
47985;BME280;33753;52.912;-7.342;2022-12-18T00:34:51;100062.22;;;1.78;100.00
47985;BME280;33753;52.912;-7.342;2022-12-18T00:37:19;100043.28;;;1.81;100.00
47985;BME280;33753;52.912;-7.342;2022-12-18T00:39:50;100039.78;;;1.81;100.00
47985;BME280;33753;52.912;-7.342;2022-12-18T00:42:19;100032.75;;;1.80;100.00
47985;BME280;33753;52.912;-7.342;2022-12-18T00:45:06;100028.03;;;1.83;100.00
47985;BME280;33753;52.912;-7.342;2022-12-18T00:47:39;100018.94;;;1.86;100.00
47985;BME280;33753;52.912;-7.342;2022-12-18T00:50:07;100017.09;;;1.86;100.00
47985;BME280;33753;52.912;-7.342;2022-12-18T00:52:36;100016.84;;;1.89;100.00
47985;BME280;33753;52.912;-7.342;2022-12-18T00:55:08;100003.06;;;1.84;100.00
47985;BME280;33753;52.912;-7.342;2022-12-18T00:57:36;100008.13;;;1.87;100.00
47985;BME280;33753;52.912;-7.342;2022-12-18T01:00:08;100008.50;;;1.83;100.00
47985;BME280;33753;52.912;-7.342;2022-12-18T01:02:37;100008.41;;;1.84;100.00
47985;BME280;33753;52.912;-7.342;2022-12-18T01:05:07;100000.41;;;1.84;100.00
47985;BME280;33753;52.912;-7.342;2022-12-18T01:07:35;99993.81;;;1.88;100.00
47985;BME280;33753;52.912;-7.342;2022-12-18T01:10:04;99990.66;;;1.95;100.00
47985;BME280;33753;52.912;-7.342;2022-12-18T01:12:34;99988.56;;;1.98;100.00
47985;BME280;33753;52.912;-7.342;2022-12-18T01:15:03;99983.56;;;2.05;100.00
47985;BME280;33753;52.912;-7.342;2022-12-18T01:17:33;99986.94;;;2.07;100.00
47985;BME280;33753;52.912;-7.342;2022-12-18T01:20:01;99957.09;;;2.13;100.00
47985;BME280;33753;52.912;-7.342;2022-12-18T01:22:29;99956.84;;;2.16;100.00
47985;BME280;33753;52.912;-7.342;2022-12-18T01:24:59;99947.72;;;2.19;100.00
47985;BME280;33753;52.912;-7.342;2022-12-18T01:27:27;99948.03;;;2.25;100.00
47985;BME280;33753;52.912;-7.342;2022-12-18T01:29:55;99941.72;;;2.27;100.00
47985;BME280;33753;52.912;-7.342;2022-12-18T01:32:25;99932.22;;;2.34;100.00
47985;BME280;33753;52.912;-7.342;2022-12-18T01:34:56;99941.66;;;2.38;100.00
47985;BME280;33753;52.912;-7.342;2022-12-18T01:37:26;99950.13;;;2.43;100.00
47985;BME280;33753;52.912;-7.342;2022-12-18T01:39:54;99948.84;;;2.47;100.00
47985;BME280;33753;52.912;-7.342;2022-12-18T01:42:22;99944.25;;;2.49;100.00
47985;BME280;33753;52.912;-7.342;2022-12-18T01:44:59;99936.94;;;2.51;100.00
47985;BME280;33753;52.912;-7.342;2022-12-18T01:47:31;99927.69;;;2.55;100.00
47985;BME280;33753;52.912;-7.342;2022-12-18T01:50:03;99921.69;;;2.63;100.00
47985;BME280;33753;52.912;-7.342;2022-12-18T01:52:32;99908.50;;;2.71;100.00
47985;BME280;33753;52.912;-7.342;2022-12-18T01:55:00;99906.16;;;2.78;100.00
47985;BME280;33753;52.912;-7.342;2022-12-18T01:57:30;99907.03;;;2.88;100.00
47985;BME280;33753;52.912;-7.342;2022-12-18T01:59:59;99898.88;;;2.90;100.00
47985;BME280;33753;52.912;-7.342;2022-12-18T02:02:38;99885.97;;;2.95;100.00
47985;BME280;33753;52.912;-7.342;2022-12-18T02:05:09;99889.91;;;3.01;100.00
47985;BME280;33753;52.912;-7.342;2022-12-18T02:07:40;99887.94;;;3.03;100.00
47985;BME280;33753;52.912;-7.342;2022-12-18T02:10:13;99879.91;;;3.03;100.00
47985;BME280;33753;52.912;-7.342;2022-12-18T02:12:45;99877.09;;;3.04;100.00
47985;BME280;33753;52.912;-7.342;2022-12-18T02:15:18;99862.34;;;3.10;100.00
47985;BME280;33753;52.912;-7.342;2022-12-18T02:17:50;99861.81;;;3.16;100.00
47985;BME280;33753;52.912;-7.342;2022-12-18T02:20:29;99863.50;;;3.17;100.00
47985;BME280;33753;52.912;-7.342;2022-12-18T02:23:03;99860.81;;;3.17;100.00
47985;BME280;33753;52.912;-7.342;2022-12-18T02:25:39;99857.63;;;3.23;100.00
47985;BME280;33753;52.912;-7.342;2022-12-18T02:28:11;99857.31;;;3.26;100.00
47985;BME280;33753;52.912;-7.342;2022-12-18T02:30:41;99859.84;;;3.28;100.00
47985;BME280;33753;52.912;-7.342;2022-12-18T02:33:10;99848.06;;;3.31;100.00
47985;BME280;33753;52.912;-7.342;2022-12-18T02:35:42;99848.91;;;3.41;100.00
47985;BME280;33753;52.912;-7.342;2022-12-18T02:38:12;99850.59;;;3.42;100.00
47985;BME280;33753;52.912;-7.342;2022-12-18T02:40:44;99843.69;;;3.49;100.00
47985;BME280;33753;52.912;-7.342;2022-12-18T02:43:17;99836.78;;;3.46;100.00
47985;BME280;33753;52.912;-7.342;2022-12-18T02:45:46;99838.19;;;3.51;100.00
47985;BME280;33753;52.912;-7.342;2022-12-18T02:48:15;99831.00;;;3.51;100.00
47985;BME280;33753;52.912;-7.342;2022-12-18T02:50:44;99818.50;;;3.52;100.00
47985;BME280;33753;52.912;-7.342;2022-12-18T02:53:20;99812.59;;;3.48;100.00
47985;BME280;33753;52.912;-7.342;2022-12-18T02:55:53;99805.81;;;3.54;100.00
47985;BME280;33753;52.912;-7.342;2022-12-18T02:58:28;99799.66;;;3.53;100.00
47985;BME280;33753;52.912;-7.342;2022-12-18T03:01:07;99792.59;;;3.52;100.00
47985;BME280;33753;52.912;-7.342;2022-12-18T03:03:39;99787.25;;;3.52;100.00
47985;BME280;33753;52.912;-7.342;2022-12-18T03:06:08;99799.06;;;3.50;100.00
47985;BME280;33753;52.912;-7.342;2022-12-18T03:08:39;99794.59;;;3.50;100.00
47985;BME280;33753;52.912;-7.342;2022-12-18T03:11:09;99796.84;;;3.45;100.00
47985;BME280;33753;52.912;-7.342;2022-12-18T03:13:41;99802.19;;;3.45;100.00
47985;BME280;33753;52.912;-7.342;2022-12-18T03:16:14;99786.44;;;3.42;100.00
47985;BME280;33753;52.912;-7.342;2022-12-18T03:18:45;99766.31;;;3.38;100.00
47985;BME280;33753;52.912;-7.342;2022-12-18T03:21:14;99748.13;;;3.41;100.00
47985;BME280;33753;52.912;-7.342;2022-12-18T03:23:46;99743.09;;;3.38;100.00
47985;BME280;33753;52.912;-7.342;2022-12-18T03:26:17;99735.78;;;3.40;100.00
47985;BME280;33753;52.912;-7.342;2022-12-18T03:28:50;99732.66;;;3.45;100.00
47985;BME280;33753;52.912;-7.342;2022-12-18T03:31:19;99730.44;;;3.40;100.00
47985;BME280;33753;52.912;-7.342;2022-12-18T03:33:51;99719.16;;;3.37;100.00
47985;BME280;33753;52.912;-7.342;2022-12-18T03:36:25;99720.88;;;3.38;100.00
47985;BME280;33753;52.912;-7.342;2022-12-18T03:38:54;99703.56;;;3.42;100.00
47985;BME280;33753;52.912;-7.342;2022-12-18T03:41:24;99693.31;;;3.37;100.00
47985;BME280;33753;52.912;-7.342;2022-12-18T03:44:19;99687.09;;;3.37;100.00
47985;BME280;33753;52.912;-7.342;2022-12-18T03:46:50;99682.59;;;3.37;100.00
47985;BME280;33753;52.912;-7.342;2022-12-18T03:49:23;99675.56;;;3.36;100.00
47985;BME280;33753;52.912;-7.342;2022-12-18T03:51:57;99650.38;;;3.39;100.00
47985;BME280;33753;52.912;-7.342;2022-12-18T03:54:28;99640.06;;;3.44;100.00
47985;BME280;33753;52.912;-7.342;2022-12-18T03:57:07;99642.38;;;3.39;100.00
47985;BME280;33753;52.912;-7.342;2022-12-18T03:59:40;99633.03;;;3.43;100.00
47985;BME280;33753;52.912;-7.342;2022-12-18T04:02:09;99610.66;;;3.44;100.00
47985;BME280;33753;52.912;-7.342;2022-12-18T04:04:38;99619.25;;;3.48;100.00
47985;BME280;33753;52.912;-7.342;2022-12-18T04:07:08;99630.09;;;3.46;100.00
47985;BME280;33753;52.912;-7.342;2022-12-18T04:09:38;99611.38;;;3.46;100.00
47985;BME280;33753;52.912;-7.342;2022-12-18T04:12:07;99621.38;;;3.44;100.00
47985;BME280;33753;52.912;-7.342;2022-12-18T04:14:37;99625.13;;;3.51;100.00
47985;BME280;33753;52.912;-7.342;2022-12-18T04:17:09;99623.16;;;3.53;100.00
47985;BME280;33753;52.912;-7.342;2022-12-18T04:19:37;99628.66;;;3.52;100.00
47985;BME280;33753;52.912;-7.342;2022-12-18T04:22:08;99617.81;;;3.53;100.00
47985;BME280;33753;52.912;-7.342;2022-12-18T04:24:42;99617.53;;;3.56;100.00
47985;BME280;33753;52.912;-7.342;2022-12-18T04:27:20;99606.84;;;3.56;100.00
47985;BME280;33753;52.912;-7.342;2022-12-18T04:29:50;99601.19;;;3.59;100.00
47985;BME280;33753;52.912;-7.342;2022-12-18T04:32:19;99581.06;;;3.55;100.00
47985;BME280;33753;52.912;-7.342;2022-12-18T04:34:49;99575.03;;;3.53;100.00
47985;BME280;33753;52.912;-7.342;2022-12-18T04:37:17;99577.88;;;3.52;100.00
47985;BME280;33753;52.912;-7.342;2022-12-18T04:39:48;99567.44;;;3.49;100.00
47985;BME280;33753;52.912;-7.342;2022-12-18T04:42:23;99560.44;;;3.48;100.00
47985;BME280;33753;52.912;-7.342;2022-12-18T04:44:51;99561.88;;;3.42;100.00
47985;BME280;33753;52.912;-7.342;2022-12-18T04:47:21;99547.94;;;3.38;100.00
47985;BME280;33753;52.912;-7.342;2022-12-18T04:49:49;99549.06;;;3.36;100.00
47985;BME280;33753;52.912;-7.342;2022-12-18T04:52:17;99544.88;;;3.33;100.00
47985;BME280;33753;52.912;-7.342;2022-12-18T04:54:45;99542.22;;;3.33;100.00
47985;BME280;33753;52.912;-7.342;2022-12-18T04:57:13;99531.69;;;3.32;100.00
47985;BME280;33753;52.912;-7.342;2022-12-18T04:59:42;99522.28;;;3.27;100.00
47985;BME280;33753;52.912;-7.342;2022-12-18T05:02:10;99527.31;;;3.31;100.00
47985;BME280;33753;52.912;-7.342;2022-12-18T05:04:40;99511.13;;;3.32;100.00
47985;BME280;33753;52.912;-7.342;2022-12-18T05:07:08;99504.94;;;3.32;100.00
47985;BME280;33753;52.912;-7.342;2022-12-18T05:09:36;99504.09;;;3.31;100.00
47985;BME280;33753;52.912;-7.342;2022-12-18T05:12:04;99488.59;;;3.35;100.00
47985;BME280;33753;52.912;-7.342;2022-12-18T05:14:33;99482.56;;;3.33;100.00
47985;BME280;33753;52.912;-7.342;2022-12-18T05:17:01;99469.91;;;3.35;100.00
47985;BME280;33753;52.912;-7.342;2022-12-18T05:19:29;99473.25;;;3.37;100.00
47985;BME280;33753;52.912;-7.342;2022-12-18T05:21:58;99468.88;;;3.36;100.00
47985;BME280;33753;52.912;-7.342;2022-12-18T05:24:28;99460.88;;;3.36;100.00
47985;BME280;33753;52.912;-7.342;2022-12-18T05:26:56;99453.41;;;3.39;100.00
47985;BME280;33753;52.912;-7.342;2022-12-18T05:29:24;99457.91;;;3.39;100.00
47985;BME280;33753;52.912;-7.342;2022-12-18T05:31:52;99454.78;;;3.43;100.00
47985;BME280;33753;52.912;-7.342;2022-12-18T05:34:20;99436.91;;;3.44;100.00
47985;BME280;33753;52.912;-7.342;2022-12-18T05:36:48;99434.63;;;3.49;100.00
47985;BME280;33753;52.912;-7.342;2022-12-18T05:39:18;99428.16;;;3.52;100.00
47985;BME280;33753;52.912;-7.342;2022-12-18T05:41:46;99417.59;;;3.50;100.00
47985;BME280;33753;52.912;-7.342;2022-12-18T05:44:14;99413.91;;;3.51;100.00
47985;BME280;33753;52.912;-7.342;2022-12-18T05:46:42;99408.13;;;3.56;100.00
47985;BME280;33753;52.912;-7.342;2022-12-18T05:49:11;99401.63;;;3.58;100.00
47985;BME280;33753;52.912;-7.342;2022-12-18T05:51:39;99414.69;;;3.61;100.00
47985;BME280;33753;52.912;-7.342;2022-12-18T05:54:08;99383.31;;;3.63;100.00
47985;BME280;33753;52.912;-7.342;2022-12-18T05:56:37;99386.66;;;3.66;100.00
47985;BME280;33753;52.912;-7.342;2022-12-18T05:59:14;99390.69;;;3.70;100.00
47985;BME280;33753;52.912;-7.342;2022-12-18T06:01:42;99380.69;;;3.72;100.00
47985;BME280;33753;52.912;-7.342;2022-12-18T06:04:11;99371.66;;;3.73;100.00
47985;BME280;33753;52.912;-7.342;2022-12-18T06:06:39;99355.84;;;3.79;100.00
47985;BME280;33753;52.912;-7.342;2022-12-18T06:09:07;99351.19;;;3.82;100.00
47985;BME280;33753;52.912;-7.342;2022-12-18T06:11:38;99341.84;;;3.86;100.00
47985;BME280;33753;52.912;-7.342;2022-12-18T06:14:06;99346.75;;;3.90;100.00
47985;BME280;33753;52.912;-7.342;2022-12-18T06:16:35;99349.09;;;3.93;100.00
47985;BME280;33753;52.912;-7.342;2022-12-18T06:19:04;99345.44;;;3.94;100.00
47985;BME280;33753;52.912;-7.342;2022-12-18T06:21:33;99345.78;;;4.00;100.00
47985;BME280;33753;52.912;-7.342;2022-12-18T06:24:02;99333.78;;;4.04;100.00
47985;BME280;33753;52.912;-7.342;2022-12-18T06:26:30;99332.84;;;4.13;100.00
47985;BME280;33753;52.912;-7.342;2022-12-18T06:29:00;99325.66;;;4.13;100.00
47985;BME280;33753;52.912;-7.342;2022-12-18T06:31:28;99327.84;;;4.18;100.00
47985;BME280;33753;52.912;-7.342;2022-12-18T06:33:56;99299.94;;;4.21;100.00
47985;BME280;33753;52.912;-7.342;2022-12-18T06:36:25;99303.81;;;4.26;100.00
47985;BME280;33753;52.912;-7.342;2022-12-18T06:38:54;99294.78;;;4.27;100.00
47985;BME280;33753;52.912;-7.342;2022-12-18T06:41:24;99275.03;;;4.28;100.00
47985;BME280;33753;52.912;-7.342;2022-12-18T06:43:52;99285.41;;;4.31;100.00
47985;BME280;33753;52.912;-7.342;2022-12-18T06:46:27;99257.81;;;4.31;100.00
47985;BME280;33753;52.912;-7.342;2022-12-18T06:48:55;99265.03;;;4.30;100.00
47985;BME280;33753;52.912;-7.342;2022-12-18T06:51:23;99282.06;;;4.29;100.00
47985;BME280;33753;52.912;-7.342;2022-12-18T06:53:52;99272.41;;;4.37;100.00
47985;BME280;33753;52.912;-7.342;2022-12-18T06:56:20;99275.56;;;4.32;100.00
47985;BME280;33753;52.912;-7.342;2022-12-18T06:58:48;99263.88;;;4.33;100.00
47985;BME280;33753;52.912;-7.342;2022-12-18T07:01:17;99263.69;;;4.35;100.00
47985;BME280;33753;52.912;-7.342;2022-12-18T07:03:51;99248.47;;;4.35;100.00
47985;BME280;33753;52.912;-7.342;2022-12-18T07:06:20;99249.28;;;4.36;100.00
47985;BME280;33753;52.912;-7.342;2022-12-18T07:08:49;99245.97;;;4.33;100.00
47985;BME280;33753;52.912;-7.342;2022-12-18T07:11:18;99235.41;;;4.32;100.00
47985;BME280;33753;52.912;-7.342;2022-12-18T07:13:46;99228.88;;;4.26;100.00
47985;BME280;33753;52.912;-7.342;2022-12-18T07:16:15;99207.44;;;4.26;100.00
47985;BME280;33753;52.912;-7.342;2022-12-18T07:18:52;99193.69;;;4.21;100.00
47985;BME280;33753;52.912;-7.342;2022-12-18T07:21:23;99183.00;;;4.21;100.00
47985;BME280;33753;52.912;-7.342;2022-12-18T07:23:51;99160.94;;;4.19;100.00
47985;BME280;33753;52.912;-7.342;2022-12-18T07:26:20;99166.59;;;4.24;100.00
47985;BME280;33753;52.912;-7.342;2022-12-18T07:28:48;99148.38;;;4.20;100.00
47985;BME280;33753;52.912;-7.342;2022-12-18T07:31:17;99142.19;;;4.19;100.00
47985;BME280;33753;52.912;-7.342;2022-12-18T07:33:47;99124.78;;;4.15;100.00
47985;BME280;33753;52.912;-7.342;2022-12-18T07:36:17;99124.41;;;4.02;100.00
47985;BME280;33753;52.912;-7.342;2022-12-18T07:38:49;99111.03;;;4.02;100.00
47985;BME280;33753;52.912;-7.342;2022-12-18T07:41:18;99102.31;;;4.00;100.00
47985;BME280;33753;52.912;-7.342;2022-12-18T07:43:46;99089.78;;;3.92;100.00
47985;BME280;33753;52.912;-7.342;2022-12-18T07:46:15;99090.22;;;3.87;100.00
47985;BME280;33753;52.912;-7.342;2022-12-18T07:48:44;99075.03;;;3.88;100.00
47985;BME280;33753;52.912;-7.342;2022-12-18T07:51:17;99086.56;;;3.88;100.00
47985;BME280;33753;52.912;-7.342;2022-12-18T07:53:46;99060.16;;;3.85;100.00
47985;BME280;33753;52.912;-7.342;2022-12-18T07:56:18;99057.47;;;3.85;100.00
47985;BME280;33753;52.912;-7.342;2022-12-18T07:58:56;99045.44;;;3.81;100.00
47985;BME280;33753;52.912;-7.342;2022-12-18T08:01:24;99039.75;;;3.84;100.00
47985;BME280;33753;52.912;-7.342;2022-12-18T08:03:53;99031.72;;;3.84;100.00
47985;BME280;33753;52.912;-7.342;2022-12-18T08:06:23;99013.69;;;3.86;100.00
47985;BME280;33753;52.912;-7.342;2022-12-18T08:08:52;99022.72;;;3.85;100.00
47985;BME280;33753;52.912;-7.342;2022-12-18T08:11:21;99019.38;;;3.83;100.00
47985;BME280;33753;52.912;-7.342;2022-12-18T08:13:49;99027.41;;;3.83;100.00
47985;BME280;33753;52.912;-7.342;2022-12-18T08:16:17;99016.38;;;3.86;100.00
47985;BME280;33753;52.912;-7.342;2022-12-18T08:18:46;99028.72;;;3.87;100.00
47985;BME280;33753;52.912;-7.342;2022-12-18T08:21:15;99018.53;;;3.91;100.00
47985;BME280;33753;52.912;-7.342;2022-12-18T08:23:48;99024.53;;;3.93;100.00
47985;BME280;33753;52.912;-7.342;2022-12-18T08:26:18;99027.09;;;3.94;100.00
47985;BME280;33753;52.912;-7.342;2022-12-18T08:28:47;99022.22;;;3.98;100.00
47985;BME280;33753;52.912;-7.342;2022-12-18T08:31:16;99018.56;;;3.99;100.00
47985;BME280;33753;52.912;-7.342;2022-12-18T08:33:45;99002.19;;;4.02;100.00
47985;BME280;33753;52.912;-7.342;2022-12-18T08:36:13;99013.38;;;4.06;100.00
47985;BME280;33753;52.912;-7.342;2022-12-18T08:38:41;99014.72;;;4.10;100.00
47985;BME280;33753;52.912;-7.342;2022-12-18T08:41:11;99004.00;;;4.10;100.00
47985;BME280;33753;52.912;-7.342;2022-12-18T08:43:40;99007.03;;;4.15;100.00
47985;BME280;33753;52.912;-7.342;2022-12-18T08:46:26;99010.38;;;4.17;100.00
47985;BME280;33753;52.912;-7.342;2022-12-18T08:48:54;98994.00;;;4.20;100.00
47985;BME280;33753;52.912;-7.342;2022-12-18T08:51:23;98999.00;;;4.23;100.00
47985;BME280;33753;52.912;-7.342;2022-12-18T08:53:51;98993.31;;;4.26;100.00
47985;BME280;33753;52.912;-7.342;2022-12-18T08:56:21;98992.97;;;4.29;100.00
47985;BME280;33753;52.912;-7.342;2022-12-18T08:58:51;98977.94;;;4.37;100.00
47985;BME280;33753;52.912;-7.342;2022-12-18T09:01:19;98969.91;;;4.37;100.00
47985;BME280;33753;52.912;-7.342;2022-12-18T09:03:48;98965.72;;;4.42;100.00
47985;BME280;33753;52.912;-7.342;2022-12-18T09:06:17;98971.56;;;4.46;100.00
47985;BME280;33753;52.912;-7.342;2022-12-18T09:08:46;98972.56;;;4.53;100.00
47985;BME280;33753;52.912;-7.342;2022-12-18T09:11:15;98970.19;;;4.58;100.00
47985;BME280;33753;52.912;-7.342;2022-12-18T09:13:48;98959.50;;;4.58;100.00
47985;BME280;33753;52.912;-7.342;2022-12-18T09:16:16;98943.75;;;4.63;100.00
47985;BME280;33753;52.912;-7.342;2022-12-18T09:18:44;98956.47;;;4.70;100.00
47985;BME280;33753;52.912;-7.342;2022-12-18T09:21:14;98948.94;;;4.73;100.00
47985;BME280;33753;52.912;-7.342;2022-12-18T09:23:43;98947.91;;;4.74;100.00
47985;BME280;33753;52.912;-7.342;2022-12-18T09:26:12;98943.88;;;4.78;100.00
47985;BME280;33753;52.912;-7.342;2022-12-18T09:28:41;98947.22;;;4.80;100.00
47985;BME280;33753;52.912;-7.342;2022-12-18T09:31:12;98944.38;;;4.82;100.00
47985;BME280;33753;52.912;-7.342;2022-12-18T09:33:41;98940.69;;;4.83;100.00
47985;BME280;33753;52.912;-7.342;2022-12-18T09:36:09;98944.50;;;4.89;100.00
47985;BME280;33753;52.912;-7.342;2022-12-18T09:38:38;98946.69;;;4.93;100.00
47985;BME280;33753;52.912;-7.342;2022-12-18T09:41:14;98939.66;;;4.92;100.00
47985;BME280;33753;52.912;-7.342;2022-12-18T09:43:45;98928.22;;;4.98;100.00
47985;BME280;33753;52.912;-7.342;2022-12-18T09:46:17;98908.66;;;4.98;100.00
47985;BME280;33753;52.912;-7.342;2022-12-18T09:48:47;98923.72;;;4.99;100.00
47985;BME280;33753;52.912;-7.342;2022-12-18T09:51:19;98912.16;;;4.98;100.00
47985;BME280;33753;52.912;-7.342;2022-12-18T09:53:50;98914.81;;;5.07;100.00
47985;BME280;33753;52.912;-7.342;2022-12-18T09:56:20;98895.88;;;5.08;100.00
47985;BME280;33753;52.912;-7.342;2022-12-18T09:58:53;98888.00;;;5.07;100.00
47985;BME280;33753;52.912;-7.342;2022-12-18T10:01:24;98903.38;;;5.13;100.00
47985;BME280;33753;52.912;-7.342;2022-12-18T10:04:04;98893.34;;;5.15;100.00
47985;BME280;33753;52.912;-7.342;2022-12-18T10:06:35;98896.03;;;5.15;100.00
47985;BME280;33753;52.912;-7.342;2022-12-18T10:09:07;98883.91;;;5.27;100.00
47985;BME280;33753;52.912;-7.342;2022-12-18T10:11:40;98872.31;;;5.27;100.00
47985;BME280;33753;52.912;-7.342;2022-12-18T10:14:13;98860.06;;;5.32;100.00
47985;BME280;33753;52.912;-7.342;2022-12-18T10:16:50;98865.56;;;5.39;100.00
47985;BME280;33753;52.912;-7.342;2022-12-18T10:19:34;98828.47;;;5.43;100.00
47985;BME280;33753;52.912;-7.342;2022-12-18T10:22:09;98841.19;;;5.49;100.00
47985;BME280;33753;52.912;-7.342;2022-12-18T10:24:39;98832.44;;;5.55;100.00
47985;BME280;33753;52.912;-7.342;2022-12-18T10:27:12;98833.00;;;5.65;100.00
47985;BME280;33753;52.912;-7.342;2022-12-18T10:29:42;98822.28;;;5.65;100.00
47985;BME280;33753;52.912;-7.342;2022-12-18T10:32:14;98821.53;;;5.71;100.00
47985;BME280;33753;52.912;-7.342;2022-12-18T10:34:47;98814.81;;;5.76;100.00
47985;BME280;33753;52.912;-7.342;2022-12-18T10:37:24;98821.22;;;5.75;100.00
47985;BME280;33753;52.912;-7.342;2022-12-18T10:40:10;98813.06;;;5.83;100.00
47985;BME280;33753;52.912;-7.342;2022-12-18T10:42:45;98802.00;;;5.86;100.00
47985;BME280;33753;52.912;-7.342;2022-12-18T10:45:14;98799.41;;;5.93;100.00
47985;BME280;33753;52.912;-7.342;2022-12-18T10:47:44;98808.31;;;5.93;100.00
47985;BME280;33753;52.912;-7.342;2022-12-18T10:50:18;98804.09;;;5.99;100.00
47985;BME280;33753;52.912;-7.342;2022-12-18T10:52:52;98785.19;;;6.07;100.00
47985;BME280;33753;52.912;-7.342;2022-12-18T10:55:22;98795.75;;;6.09;100.00
47985;BME280;33753;52.912;-7.342;2022-12-18T10:57:50;98780.56;;;6.16;100.00
47985;BME280;33753;52.912;-7.342;2022-12-18T11:00:23;98781.53;;;6.23;100.00
47985;BME280;33753;52.912;-7.342;2022-12-18T11:02:53;98766.69;;;6.27;100.00
47985;BME280;33753;52.912;-7.342;2022-12-18T11:05:24;98762.59;;;6.31;100.00
47985;BME280;33753;52.912;-7.342;2022-12-18T11:07:53;98756.50;;;6.37;100.00
47985;BME280;33753;52.912;-7.342;2022-12-18T11:10:23;98749.38;;;6.45;100.00
47985;BME280;33753;52.912;-7.342;2022-12-18T11:12:55;98749.63;;;6.50;100.00
47985;BME280;33753;52.912;-7.342;2022-12-18T11:15:25;98743.13;;;6.59;100.00
47985;BME280;33753;52.912;-7.342;2022-12-18T11:17:55;98724.97;;;6.61;100.00
47985;BME280;33753;52.912;-7.342;2022-12-18T11:20:30;98724.47;;;6.72;100.00
47985;BME280;33753;52.912;-7.342;2022-12-18T11:22:59;98734.09;;;6.82;100.00
47985;BME280;33753;52.912;-7.342;2022-12-18T11:25:29;98709.34;;;6.86;100.00
47985;BME280;33753;52.912;-7.342;2022-12-18T11:28:01;98722.84;;;6.93;100.00
47985;BME280;33753;52.912;-7.342;2022-12-18T11:30:30;98712.34;;;6.98;100.00
47985;BME280;33753;52.912;-7.342;2022-12-18T11:33:02;98718.81;;;7.04;100.00
47985;BME280;33753;52.912;-7.342;2022-12-18T11:35:36;98711.56;;;7.04;100.00
47985;BME280;33753;52.912;-7.342;2022-12-18T11:38:06;98694.03;;;7.08;100.00
47985;BME280;33753;52.912;-7.342;2022-12-18T11:40:40;98704.44;;;7.12;100.00
47985;BME280;33753;52.912;-7.342;2022-12-18T11:43:10;98696.97;;;7.14;100.00
47985;BME280;33753;52.912;-7.342;2022-12-18T11:45:43;98700.28;;;7.16;100.00
47985;BME280;33753;52.912;-7.342;2022-12-18T11:48:16;98699.53;;;7.22;100.00
47985;BME280;33753;52.912;-7.342;2022-12-18T11:50:46;98684.69;;;7.26;100.00
47985;BME280;33753;52.912;-7.342;2022-12-18T11:53:16;98677.88;;;7.30;100.00
47985;BME280;33753;52.912;-7.342;2022-12-18T11:55:48;98676.47;;;7.34;100.00
47985;BME280;33753;52.912;-7.342;2022-12-18T11:58:21;98667.38;;;7.35;100.00
47985;BME280;33753;52.912;-7.342;2022-12-18T12:00:59;98675.09;;;7.45;100.00
47985;BME280;33753;52.912;-7.342;2022-12-18T12:06:20;98635.69;;;7.59;100.00
47985;BME280;33753;52.912;-7.342;2022-12-18T12:08:58;98645.66;;;7.65;100.00
47985;BME280;33753;52.912;-7.342;2022-12-18T12:11:31;98634.72;;;7.73;100.00
47985;BME280;33753;52.912;-7.342;2022-12-18T12:14:07;98639.97;;;7.82;100.00
47985;BME280;33753;52.912;-7.342;2022-12-18T12:16:37;98635.63;;;7.87;100.00
47985;BME280;33753;52.912;-7.342;2022-12-18T12:19:15;98627.56;;;7.94;100.00
47985;BME280;33753;52.912;-7.342;2022-12-18T12:21:55;98610.41;;;7.95;100.00
47985;BME280;33753;52.912;-7.342;2022-12-18T12:24:31;98610.25;;;8.03;100.00
47985;BME280;33753;52.912;-7.342;2022-12-18T12:27:06;98607.34;;;8.11;100.00
47985;BME280;33753;52.912;-7.342;2022-12-18T12:29:46;98597.84;;;8.16;100.00
47985;BME280;33753;52.912;-7.342;2022-12-18T12:32:21;98595.38;;;8.21;100.00
47985;BME280;33753;52.912;-7.342;2022-12-18T12:34:54;98591.25;;;8.25;100.00
47985;BME280;33753;52.912;-7.342;2022-12-18T12:37:37;98599.16;;;8.33;100.00
47985;BME280;33753;52.912;-7.342;2022-12-18T12:40:07;98592.50;;;8.36;100.00
47985;BME280;33753;52.912;-7.342;2022-12-18T12:43:01;98586.53;;;8.40;100.00
47985;BME280;33753;52.912;-7.342;2022-12-18T12:45:45;98583.03;;;8.46;100.00
47985;BME280;33753;52.912;-7.342;2022-12-18T12:48:16;98568.13;;;8.51;100.00
47985;BME280;33753;52.912;-7.342;2022-12-18T12:50:46;98577.47;;;8.55;100.00
47985;BME280;33753;52.912;-7.342;2022-12-18T12:53:20;98565.25;;;8.59;100.00
47985;BME280;33753;52.912;-7.342;2022-12-18T12:55:50;98570.63;;;8.65;100.00
47985;BME280;33753;52.912;-7.342;2022-12-18T12:58:20;98567.31;;;8.70;100.00
47985;BME280;33753;52.912;-7.342;2022-12-18T13:00:53;98573.53;;;8.71;100.00
47985;BME280;33753;52.912;-7.342;2022-12-18T13:03:27;98566.91;;;8.73;100.00
47985;BME280;33753;52.912;-7.342;2022-12-18T13:06:00;98564.84;;;8.82;100.00
47985;BME280;33753;52.912;-7.342;2022-12-18T13:08:34;98572.31;;;8.87;100.00
47985;BME280;33753;52.912;-7.342;2022-12-18T13:11:28;98554.91;;;8.96;100.00